Allerte
Precipitazioni in corso 

Nessun fenomeno

Allerta Gelo (░C)  

Nessuna

Allerta Vento (km/h)  

Nessuna

Scarsa VisibilitÓ (m) 

Monte Termin
0

Allerta Caldo (░C)  

Nessuna

Allerta Afa (░C-UR)  

Nessuna

Dati e Grafici Climatici 3-7 gg
L'OMTeA propone un elaborazione dei più importanti parametri meteorologici rilevati dalle stazioni che hanno aderito al progetto di monitoraggio. In questa sezione è possibile consultare i dati provenienti dalle centraline, interpretati attraverso output testuale e grafico.
Se vuoi aderire alla rete OMTeA vai alla pagina Info e leggi requisiti e vantaggi.

Stazione di Pomezia - www.pomeziameteo.it

Valori rilevati il 21/04/2018 alle ore 22:45

Temperatura atmosferica: 17.6 °C
Pressione atmosferica: 1017.6 mbar
Umidità relativa: 86 %

Altitudine: 108 metri s.l.m.
Latitudine: 41.41° N
Longitudine: 12.30° E



Entra nella rete OMTeA!. Potrai liberamente usare sul tuo sito questi grafici; info alla pagina Istruzioni.

Ultime 50 rilevazioni
Orario Temp
°C
Rugiada
°C
Prec.
mm
Press.
mbar
Umidità
%
Int. vento
km/h
Dir.
vento
22:45 - 21/04 17.6 15.2 0 1017.60 86 0 --
22:30 - 21/04 17.7 15.3 0 1017.60 86 0 --
22:16 - 21/04 17.7 15.1 0 1017.70 85 0 --
22:00 - 21/04 17.9 15.2 0 1017.80 84 0 --
21:45 - 21/04 18.2 15.4 0 1017.70 84 0 --
21:30 - 21/04 18.3 15.4 0 1017.60 83 0 --
21:15 - 21/04 18.4 15.5 0 1017.50 83 0 --
21:01 - 21/04 18.6 15.5 0 1017.50 82 0 --
20:45 - 21/04 18.8 15.5 0 1017.40 81 0 --
20:30 - 21/04 18.8 15.3 0 1017.30 80 0 --
20:15 - 21/04 19.1 15.0 0 1017.10 77 0 --
20:00 - 21/04 19.6 14.8 0 1016.90 74 0 --
19:45 - 21/04 19.7 14.5 0 1016.90 72 0 --
19:30 - 21/04 19.9 14.5 0 1016.80 71 1.6 SSE
19:15 - 21/04 20.1 14.5 0 1016.80 70 0 --
19:01 - 21/04 20.2 14.5 0 1016.70 70 0 --
18:46 - 21/04 20.7 15.0 0 1016.70 70 1.6 S
18:30 - 21/04 20.9 15.0 0 1016.70 69 1.6 SSE
18:15 - 21/04 21.1 15.0 0 1016.70 68 3.2 S
18:00 - 21/04 21.4 14.8 0 1016.80 66 3.2 SSE
17:45 - 21/04 21.8 14.9 0 1016.80 65 3.2 S
17:30 - 21/04 22.3 15.4 0 1016.80 65 3.2 OSO
17:15 - 21/04 22.6 15.4 0 1016.80 64 6.4 SSE
17:00 - 21/04 22.8 14.6 0 1016.90 60 6.4 S
16:45 - 21/04 22.7 14.3 0 1017.00 59 8.0 SSO
16:30 - 21/04 22.5 14.8 0 1017.00 62 6.4 SSE
16:15 - 21/04 22.7 14.5 0 1017.10 60 0 --
16:01 - 21/04 22.9 14.5 0 1017.20 59 8.0 SSE
15:45 - 21/04 23.8 13.0 0 1017.30 51 8.0 S
15:30 - 21/04 23.6 12.2 0 1017.40 49 0 --
15:15 - 21/04 23.6 12.2 0 1017.50 49 8.0 SSO
15:01 - 21/04 23.7 12.6 0 1017.60 50 6.4 SSE
14:46 - 21/04 23.6 13.4 0 1017.60 53 1.6 SSE
14:31 - 21/04 23.7 13.5 0 1017.70 53 8.0 S
14:16 - 21/04 23.7 12.3 0 1017.70 49 4.8 S
14:01 - 21/04 23.3 12.3 0 1017.70 50 11.3 SSE
13:45 - 21/04 23.7 13.8 0 1017.80 54 1.6 S
13:30 - 21/04 23.6 13.4 0 1017.80 53 0 --
13:15 - 21/04 23.7 13.5 0 1017.80 53 3.2 OSO
12:45 - 21/04 23.8 13.6 0 1017.80 53 1.6 SE
12:30 - 21/04 23.8 13.9 0 1017.80 54 1.6 SO
12:15 - 21/04 23.7 14.1 0 1018.00 55 8.0 OSO
12:01 - 21/04 23.3 14.6 0 1018.00 58 4.8 SO
11:45 - 21/04 23.3 14.8 0 1018.00 59 3.2 SO
11:30 - 21/04 22.9 14.5 0 1018.10 59 3.2 S
11:15 - 21/04 22.8 13.3 0 1018.10 55 9.7 S
11:01 - 21/04 22.3 13.1 0 1018.10 56 9.7 SE
10:45 - 21/04 22.1 12.9 0 1018.10 56 8.0 SSE
10:30 - 21/04 22.0 12.8 0 1018.00 56 3.2 SSE
10:15 - 21/04 21.6 12.2 0 1018.00 55 8.0 SSE


   In caso di mancato funzionamento di qualche risorsa, vi preghiamo di segnalarcelo alla pagina Contatti.
© 2018 Osservatorio Meteo OMTeA
Sito di informazione su Meteo, Tempo in atto e Clima in Italia